createdAt,value
2022-11-19T00:02:50.164Z,78.17
2022-11-19T00:06:18.759Z,78.11
2022-11-19T00:09:45.562Z,78.35
2022-11-19T00:13:13.496Z,78.35
2022-11-19T00:16:40.603Z,78.44
2022-11-19T00:20:08.940Z,78.35
2022-11-19T00:23:35.782Z,78.29
2022-11-19T00:27:02.749Z,78.36
2022-11-19T00:34:16.240Z,78.35
2022-11-19T00:37:43.114Z,78.53
2022-11-19T00:41:10.380Z,78.64
2022-11-19T00:44:37.642Z,78.47
2022-11-19T00:48:04.435Z,78.79
2022-11-19T00:51:32.247Z,78.85
2022-11-19T00:54:58.885Z,78.96
2022-11-19T00:58:25.553Z,78.93
2022-11-19T01:01:52.186Z,78.94
2022-11-19T01:05:19.192Z,79.39
2022-11-19T01:08:46.173Z,79.05
2022-11-19T01:12:12.733Z,79.32
2022-11-19T01:15:39.497Z,79.13
2022-11-19T01:19:07.335Z,79.28
2022-11-19T01:22:33.956Z,79.33
2022-11-19T01:26:00.985Z,79.20
2022-11-19T01:29:27.661Z,79.17
2022-11-19T01:32:54.306Z,79.15
2022-11-19T01:36:22.743Z,79.19
2022-11-19T01:39:49.517Z,79.16
2022-11-19T01:43:16.546Z,79.10
2022-11-19T01:46:43.219Z,79.08
2022-11-19T01:50:10.720Z,79.18
2022-11-19T01:53:39.301Z,79.19
2022-11-19T01:57:10.751Z,79.20
2022-11-19T02:00:37.619Z,79.26
2022-11-19T02:04:05.876Z,79.51
2022-11-19T02:07:35.411Z,79.63
2022-11-19T02:11:16.736Z,79.65
2022-11-19T02:15:02.046Z,79.69
2022-11-19T02:18:43.052Z,79.82
2022-11-19T02:22:29.647Z,79.88
2022-11-19T02:26:24.606Z,79.75
2022-11-19T02:30:09.767Z,79.61
2022-11-19T02:33:45.293Z,79.66
2022-11-19T02:37:16.423Z,80.08
2022-11-19T02:40:49.249Z,80.24
2022-11-19T02:44:41.141Z,80.45
2022-11-19T02:48:13.394Z,80.48
2022-11-19T02:51:40.760Z,80.73
2022-11-19T02:55:08.785Z,80.74
2022-11-19T02:58:54.896Z,81.19
2022-11-19T03:02:41.554Z,81.63
2022-11-19T03:06:13.331Z,81.43
2022-11-19T03:09:47.206Z,81.52
2022-11-19T03:13:39.353Z,81.43
2022-11-19T03:17:13.750Z,81.66
2022-11-19T03:20:45.960Z,81.80
2022-11-19T03:24:19.516Z,81.55
2022-11-19T03:27:49.708Z,81.60
2022-11-19T03:31:19.861Z,81.67
2022-11-19T03:34:50.386Z,82.24
2022-11-19T03:38:32.013Z,82.01
2022-11-19T03:41:59.439Z,81.95
2022-11-19T03:45:30.793Z,81.93
2022-11-19T03:49:00.573Z,81.94
2022-11-19T03:52:27.377Z,82.18
2022-11-19T03:55:58.877Z,82.04
2022-11-19T03:59:29.660Z,81.50
2022-11-19T04:02:56.956Z,81.70
2022-11-19T04:06:23.734Z,81.30
2022-11-19T04:09:50.756Z,81.29
2022-11-19T04:13:17.420Z,81.15
2022-11-19T04:16:44.437Z,81.04
2022-11-19T04:20:12.501Z,81.04
2022-11-19T04:23:39.144Z,81.01
2022-11-19T04:27:05.750Z,81.00
2022-11-19T04:30:32.416Z,80.93
2022-11-19T04:33:59.327Z,80.91
2022-11-19T04:37:25.933Z,81.15
2022-11-19T04:40:52.526Z,81.21
2022-11-19T04:44:19.437Z,81.25
2022-11-19T04:47:46.219Z,81.22
2022-11-19T04:51:13.087Z,81.17
2022-11-19T04:54:40.585Z,81.56
2022-11-19T04:58:07.199Z,81.18
2022-11-19T05:01:34.247Z,81.36
2022-11-19T05:05:01.002Z,81.42
2022-11-19T05:19:38.579Z,80.96
2022-11-19T05:23:05.593Z,80.88
2022-11-19T05:26:32.209Z,80.65
2022-11-19T05:29:58.821Z,80.99
2022-11-19T05:33:28.681Z,81.19
2022-11-19T05:36:57.999Z,81.26
2022-11-19T05:40:25.088Z,81.48
2022-11-19T05:43:51.760Z,81.55
2022-11-19T05:47:20.042Z,81.98
2022-11-19T05:50:46.971Z,81.87
2022-11-19T05:54:15.253Z,82.12
2022-11-19T05:57:41.918Z,82.25
2022-11-19T06:01:09.921Z,82.42
2022-11-19T06:14:26.393Z,82.61
2022-11-19T06:17:53.242Z,82.31
2022-11-19T06:21:19.890Z,82.52
2022-11-19T06:24:47.089Z,82.62
2022-11-19T06:28:13.799Z,82.37
2022-11-19T06:31:40.815Z,82.49
2022-11-19T06:35:08.845Z,82.38
2022-11-19T06:38:36.207Z,82.37
2022-11-19T06:42:16.821Z,82.75
2022-11-19T06:45:43.624Z,83.07
2022-11-19T06:49:19.599Z,83.39
2022-11-19T06:52:47.054Z,83.16
2022-11-19T06:56:14.126Z,83.20
2022-11-19T06:59:40.927Z,83.04
2022-11-19T07:03:07.666Z,82.97
2022-11-19T07:06:34.291Z,83.06
2022-11-19T07:10:01.181Z,82.92
2022-11-19T07:13:48.764Z,82.92
2022-11-19T07:17:15.579Z,83.04
2022-11-19T07:20:42.611Z,83.11
2022-11-19T07:24:11.783Z,83.13
2022-11-19T07:27:38.635Z,83.04
2022-11-19T07:31:09.225Z,82.72
2022-11-19T07:34:35.870Z,82.90
2022-11-19T07:38:02.514Z,82.72
2022-11-19T07:41:47.081Z,82.51
2022-11-19T07:45:14.044Z,82.45
2022-11-19T07:48:40.700Z,82.52
2022-11-19T07:52:07.452Z,82.36
2022-11-19T07:55:34.374Z,82.59
2022-11-19T07:59:04.719Z,82.47
2022-11-19T08:02:32.202Z,82.65
2022-11-19T08:05:58.993Z,82.62
2022-11-19T08:09:25.661Z,82.50
2022-11-19T08:13:03.268Z,81.97
2022-11-19T08:16:47.917Z,81.84
2022-11-19T08:20:15.058Z,81.77
2022-11-19T08:23:42.176Z,81.60
2022-11-19T08:27:09.245Z,81.64
2022-11-19T08:30:36.215Z,81.44
2022-11-19T08:34:03.782Z,81.49
2022-11-19T08:37:30.775Z,81.52
2022-11-19T08:41:12.287Z,81.12
2022-11-19T08:44:38.880Z,81.25
2022-11-19T08:48:10.333Z,81.04
2022-11-19T08:51:37.110Z,80.96
2022-11-19T08:55:03.818Z,80.66
2022-11-19T08:58:30.400Z,80.55
2022-11-19T09:01:57.123Z,80.30
2022-11-19T09:05:24.578Z,80.32
2022-11-19T09:08:51.871Z,80.18
2022-11-19T09:12:18.780Z,80.06
2022-11-19T09:15:49.046Z,79.94
2022-11-19T09:19:15.812Z,79.98
2022-11-19T09:22:42.880Z,79.72
2022-11-19T09:26:13.432Z,80.00
2022-11-19T09:29:40.185Z,79.25
2022-11-19T09:33:06.771Z,79.37
2022-11-19T09:36:33.399Z,79.03
2022-11-19T09:40:00.080Z,78.66
2022-11-19T09:43:43.439Z,78.58
2022-11-19T09:47:24.116Z,78.37
2022-11-19T09:50:55.166Z,77.70
2022-11-19T09:54:24.399Z,76.41
2022-11-19T09:57:54.120Z,76.72
2022-11-19T10:01:20.083Z,76.19
2022-11-19T10:04:48.558Z,75.14
2022-11-19T10:08:29.754Z,73.94
2022-11-19T10:12:08.026Z,73.34
2022-11-19T10:15:39.225Z,74.06
2022-11-19T10:19:15.353Z,74.12
2022-11-19T10:22:56.936Z,73.07
2022-11-19T10:26:33.701Z,72.09
2022-11-19T10:30:05.449Z,70.91
2022-11-19T10:33:36.344Z,70.41
2022-11-19T10:37:09.740Z,70.79
2022-11-19T10:40:42.309Z,70.92
2022-11-19T10:44:35.434Z,71.64
2022-11-19T10:48:09.313Z,68.81
2022-11-19T10:51:43.208Z,68.40
2022-11-19T10:55:19.871Z,69.51
2022-11-19T10:58:51.510Z,68.15
2022-11-19T11:02:28.435Z,67.72
2022-11-19T11:06:02.042Z,69.34
2022-11-19T11:09:34.916Z,68.73
2022-11-19T11:13:35.269Z,67.09
2022-11-19T11:17:03.113Z,67.65
2022-11-19T11:20:32.160Z,67.79
2022-11-19T11:24:00.676Z,65.67
2022-11-19T11:27:33.710Z,65.48
2022-11-19T11:31:02.478Z,65.19
2022-11-19T11:34:34.436Z,65.05
2022-11-19T11:38:02.997Z,65.38
2022-11-19T11:42:04.694Z,65.96
2022-11-19T11:45:33.560Z,66.47
2022-11-19T11:49:06.885Z,65.82
2022-11-19T11:52:41.898Z,66.11
2022-11-19T11:56:11.449Z,66.73
2022-11-19T11:59:38.588Z,66.49
2022-11-19T12:03:07.279Z,66.02
2022-11-19T12:06:42.685Z,66.07
2022-11-19T12:10:21.919Z,65.56
2022-11-19T12:13:58.388Z,65.49
2022-11-19T12:17:38.698Z,66.41
2022-11-19T12:21:12.196Z,66.16
2022-11-19T12:24:56.491Z,66.99
2022-11-19T12:28:33.087Z,67.71
2022-11-19T12:32:22.357Z,67.64
2022-11-19T12:35:57.754Z,67.70
2022-11-19T12:39:37.571Z,67.78
2022-11-19T12:43:16.178Z,68.17
2022-11-19T12:46:52.018Z,68.42
2022-11-19T12:50:27.063Z,68.23
2022-11-19T12:54:22.419Z,69.20
2022-11-19T12:58:02.843Z,69.70
2022-11-19T13:01:34.205Z,70.30
2022-11-19T13:05:07.621Z,70.89
2022-11-19T13:08:39.194Z,71.26
2022-11-19T13:12:09.528Z,72.14
2022-11-19T13:15:41.216Z,73.20
2022-11-19T13:19:21.105Z,73.35
2022-11-19T13:22:51.858Z,74.03
2022-11-19T13:26:21.765Z,74.31
2022-11-19T13:29:54.129Z,74.57
2022-11-19T13:33:23.976Z,74.60
2022-11-19T13:36:59.712Z,75.21
2022-11-19T13:40:31.731Z,75.60
2022-11-19T13:44:22.766Z,75.85
2022-11-19T13:47:58.120Z,76.62
2022-11-19T13:51:31.671Z,77.18
2022-11-19T13:55:00.719Z,77.42
2022-11-19T13:58:33.909Z,78.12
2022-11-19T14:02:21.836Z,78.78
2022-11-19T14:06:08.700Z,78.59
2022-11-19T14:09:45.705Z,79.61
2022-11-19T14:13:34.932Z,79.93
2022-11-19T14:17:25.175Z,79.78
2022-11-19T14:21:09.749Z,79.80
2022-11-19T14:25:12.271Z,80.34
2022-11-19T14:28:56.966Z,80.90
2022-11-19T14:32:31.858Z,81.12
2022-11-19T14:35:58.596Z,81.65
2022-11-19T14:39:29.794Z,81.45
2022-11-19T14:43:46.424Z,81.85
2022-11-19T14:47:35.034Z,81.98
2022-11-19T14:51:07.428Z,82.32
2022-11-19T14:54:43.997Z,82.42
2022-11-19T14:58:24.380Z,82.45
2022-11-19T15:02:02.568Z,82.96
2022-11-19T15:05:34.571Z,83.27
2022-11-19T15:09:02.243Z,83.22
2022-11-19T15:12:46.654Z,83.58
2022-11-19T15:16:16.045Z,83.69
2022-11-19T15:19:51.862Z,83.78
2022-11-19T15:23:27.146Z,84.05
2022-11-19T15:27:01.409Z,84.19
2022-11-19T15:30:41.813Z,84.27
2022-11-19T15:34:38.472Z,84.44
2022-11-19T15:38:31.046Z,84.46
2022-11-19T15:42:02.303Z,84.39
2022-11-19T15:45:32.565Z,84.77
2022-11-19T15:49:07.365Z,84.58
2022-11-19T15:52:34.678Z,84.53
2022-11-19T15:56:04.070Z,84.63
2022-11-19T15:59:33.944Z,84.80
2022-11-19T16:03:01.982Z,84.85
2022-11-19T16:06:30.475Z,85.02
2022-11-19T16:09:58.108Z,85.01
2022-11-19T16:13:43.949Z,85.05
2022-11-19T16:17:41.734Z,84.89
2022-11-19T16:21:10.121Z,84.95
2022-11-19T16:24:54.577Z,85.31
2022-11-19T16:28:30.466Z,85.11
2022-11-19T16:32:00.597Z,85.25
2022-11-19T16:35:29.733Z,85.55
2022-11-19T16:38:57.288Z,85.38
2022-11-19T16:42:42.284Z,85.57
2022-11-19T16:46:11.423Z,85.51
2022-11-19T16:49:52.751Z,85.53
2022-11-19T16:53:48.545Z,85.42
2022-11-19T16:57:19.241Z,85.65
2022-11-19T17:00:49.779Z,85.65
2022-11-19T17:04:16.711Z,85.42
2022-11-19T17:07:48.087Z,85.48
2022-11-19T17:11:38.576Z,85.51
2022-11-19T17:15:36.772Z,85.51
2022-11-19T17:19:13.990Z,85.55
2022-11-19T17:22:41.781Z,85.49
2022-11-19T17:26:09.548Z,85.62
2022-11-19T17:29:36.274Z,85.73
2022-11-19T17:33:05.772Z,85.65
2022-11-19T17:36:33.489Z,86.02
2022-11-19T17:40:00.197Z,85.76
2022-11-19T17:43:49.095Z,85.81
2022-11-19T17:47:22.862Z,85.77
2022-11-19T17:50:51.633Z,85.67
2022-11-19T17:54:18.719Z,85.65
2022-11-19T17:57:45.939Z,85.93
2022-11-19T18:01:13.575Z,86.05
2022-11-19T18:04:40.245Z,86.24
2022-11-19T18:08:07.268Z,86.27
2022-11-19T18:11:34.386Z,86.31
2022-11-19T18:15:02.327Z,86.57
2022-11-19T18:18:29.198Z,86.49
2022-11-19T18:21:56.230Z,86.73
2022-11-19T18:25:23.496Z,86.73
2022-11-19T18:28:50.271Z,87.04
2022-11-19T18:32:17.247Z,86.81
2022-11-19T18:35:44.279Z,87.11
2022-11-19T18:39:10.907Z,87.22
2022-11-19T18:42:37.535Z,87.48
2022-11-19T18:46:04.099Z,87.51
2022-11-19T18:49:30.859Z,87.59
2022-11-19T18:52:57.463Z,87.80
2022-11-19T18:56:24.403Z,87.87
2022-11-19T18:59:51.011Z,87.97
2022-11-19T19:03:17.678Z,88.10
2022-11-19T19:06:44.726Z,88.19
2022-11-19T19:10:13.883Z,87.93
2022-11-19T19:13:40.541Z,87.96
2022-11-19T19:17:07.469Z,87.90
2022-11-19T19:20:36.078Z,87.78
2022-11-19T19:24:05.205Z,87.70
2022-11-19T19:27:31.814Z,87.70
2022-11-19T19:31:01.072Z,87.79
2022-11-19T19:34:29.026Z,87.84
2022-11-19T19:37:56.145Z,87.69
2022-11-19T19:41:25.333Z,87.83
2022-11-19T19:44:50.737Z,87.73
2022-11-19T19:48:17.533Z,87.63
2022-11-19T19:51:44.413Z,87.80
2022-11-19T19:55:11.870Z,87.69
2022-11-19T19:58:38.967Z,87.71
2022-11-19T20:02:05.707Z,87.77
2022-11-19T20:05:32.813Z,87.77
2022-11-19T20:09:03.179Z,87.76
2022-11-19T20:12:47.514Z,87.59
2022-11-19T20:16:19.570Z,87.66
2022-11-19T20:19:46.487Z,87.63
2022-11-19T20:23:13.302Z,87.44
2022-11-19T20:26:40.502Z,87.53
2022-11-19T20:30:09.594Z,87.73
2022-11-19T20:33:37.135Z,87.41
2022-11-19T20:37:04.244Z,87.66
2022-11-19T20:40:31.268Z,87.53
2022-11-19T20:44:15.426Z,87.53
2022-11-19T20:47:42.517Z,87.44
2022-11-19T20:51:09.724Z,87.36
2022-11-19T20:54:37.038Z,87.12
2022-11-19T20:58:03.781Z,87.06
2022-11-19T21:01:31.547Z,86.91
2022-11-19T21:04:58.329Z,86.86
2022-11-19T21:08:25.431Z,86.53
2022-11-19T21:11:52.393Z,86.36
2022-11-19T21:15:19.280Z,86.22
2022-11-19T21:18:46.430Z,86.12
2022-11-19T21:22:13.421Z,85.85
2022-11-19T21:25:40.097Z,85.81
2022-11-19T21:29:07.075Z,85.69
2022-11-19T21:32:33.915Z,85.62
2022-11-19T21:36:03.278Z,85.44
2022-11-19T21:39:30.016Z,85.39
2022-11-19T21:42:56.728Z,85.41
2022-11-19T21:46:23.633Z,85.51
2022-11-19T21:49:50.393Z,85.38
2022-11-19T21:53:18.539Z,85.29
2022-11-19T21:56:45.412Z,85.32
2022-11-19T22:00:14.474Z,85.28
2022-11-19T22:03:42.317Z,85.31
2022-11-19T22:07:09.585Z,85.33
2022-11-19T22:10:38.338Z,85.33
2022-11-19T22:14:09.598Z,85.29
2022-11-19T22:17:37.061Z,85.13
2022-11-19T22:21:04.984Z,85.21
2022-11-19T22:24:32.439Z,85.01
2022-11-19T22:27:59.068Z,84.95
2022-11-19T22:31:26.030Z,85.00
2022-11-19T22:34:53.044Z,84.75
2022-11-19T22:38:19.748Z,84.71
2022-11-19T22:41:46.721Z,84.72
2022-11-19T22:45:13.663Z,84.45
2022-11-19T22:48:40.876Z,84.47
2022-11-19T22:52:07.921Z,84.52
2022-11-19T22:55:37.116Z,84.45
2022-11-19T22:59:04.949Z,84.30
2022-11-19T23:02:32.795Z,84.22
2022-11-19T23:06:00.316Z,84.21
2022-11-19T23:09:26.932Z,84.19
2022-11-19T23:13:11.520Z,84.08
2022-11-19T23:16:38.793Z,83.95
2022-11-19T23:20:06.694Z,83.95
2022-11-19T23:23:33.638Z,83.75
2022-11-19T23:27:00.380Z,83.78
2022-11-19T23:30:27.095Z,83.76
2022-11-19T23:33:58.981Z,83.87
2022-11-19T23:37:26.472Z,83.83
2022-11-19T23:41:01.088Z,83.82
2022-11-19T23:44:28.054Z,83.88
2022-11-19T23:47:54.634Z,83.81
2022-11-19T23:51:23.897Z,83.82
2022-11-19T23:54:50.583Z,83.92
2022-11-19T23:58:17.301Z,83.86
